Terminal Aerodrome Forecast
Issued by NWS

Home | Current Version | Previous Version | Text Only | Print | Product List | Glossary On
Versions: 1 2 3 4 5 6 7 8 9 10 11 12 13 14 15 16 17 18 19 20 21 22 23
036
FTUS41 KPHI 292337
TAFPNE
TAF
KPNE 292337Z 3000/3024 31009KT P6SM BKN250
     FM300300 01007KT P6SM SCT250
     FM300800 05009KT P6SM BKN050
     FM300900 05011KT P6SM BKN045 PROB30 3010/3013 -SHRA
     FM301500 09011KT P6SM BKN035
     FM302100 09009KT P6SM OVC025=

USA.gov is the U.S. government's official web portal to all federal, state and local government web resources and services.